Time;durP1;ratioP1;P1;durP2;ratioP2;P2;SDS_P1;SDS_P2;PMS_P1;PMS_P2;Temp;Humidity;BMP_temperature;BMP_pressure;BME280_temperature;BME280_humidity;BME280_pressure;Samples;Min_cycle;Max_cycle;Signal;HPM_P1;HPM_P2
2022/06/12 00:00:37;;;;;;;;;;;25.40;91.10;;;;;;5063330;28;19928;-60
2022/06/12 00:03:06;;;;;;;;;;;25.40;91.20;;;;;;5061209;28;20328;-63
2022/06/12 00:05:35;;;;;;;;;;;25.40;91.20;;;;;;5057374;28;19928;-63
2022/06/12 00:08:03;;;;;;;;;;;25.40;91.30;;;;;;5052611;28;20034;-64
2022/06/12 00:10:30;;;;;;;;;;;25.40;91.60;;;;;;5064772;28;19931;-63
2022/06/12 00:12:57;;;;;;;;;;;25.40;91.30;;;;;;5052119;28;20426;-62
2022/06/12 00:15:26;;;;;;;;;;;25.40;91.30;;;;;;5071603;28;20407;-62
2022/06/12 00:17:53;;;;;;;;;;;25.40;91.50;;;;;;5053780;28;19929;-64
2022/06/12 00:20:22;;;;;;;;;;;25.30;91.50;;;;;;5064254;28;19928;-64
2022/06/12 00:22:50;;;;;;;;;;;25.40;91.40;;;;;;5066088;28;19928;-63
2022/06/12 00:25:18;;;;;;;;;;;25.30;91.60;;;;;;5054071;28;20282;-62
2022/06/12 00:27:45;;;;;;;;;;;25.40;91.50;;;;;;5061826;28;20193;-65
2022/06/12 00:30:14;;;;;;;;;;;25.30;91.60;;;;;;5058363;28;19929;-63
2022/06/12 00:32:41;;;;;;;;;;;25.30;91.60;;;;;;5055027;28;19948;-64
2022/06/12 00:35:09;;;;;;;;;;;25.30;91.80;;;;;;5066789;28;20019;-63
2022/06/12 00:37:37;;;;;;;;;;;25.30;91.50;;;;;;5061898;28;19936;-64
2022/06/12 00:40:05;;;;;;;;;;;25.30;91.50;;;;;;5068250;28;20335;-64
2022/06/12 00:42:43;;;;;;;;;;;25.30;91.50;;;;;;5065787;28;19935;-64
2022/06/12 00:45:33;;;;;;;;;;;25.30;91.60;;;;;;5071161;28;19931;-64
2022/06/12 00:48:03;;;;;;;;;;;25.30;91.60;;;;;;5053647;28;20265;-61
2022/06/12 00:50:30;;;;;;;;;;;25.30;91.70;;;;;;5058930;28;20342;-62
2022/06/12 00:52:58;;;;;;;;;;;25.30;91.70;;;;;;5068824;28;19948;-62
2022/06/12 00:55:25;;;;;;;;;;;25.30;91.70;;;;;;5065400;28;19936;-64
2022/06/12 00:57:53;;;;;;;;;;;25.20;91.70;;;;;;5054478;28;20411;-64
2022/06/12 01:00:20;;;;;;;;;;;25.30;91.70;;;;;;5063084;28;19947;-61
2022/06/12 01:02:48;;;;;;;;;;;25.30;91.60;;;;;;5050989;28;20419;-62
2022/06/12 01:08:04;;;;;;;;;;;25.20;91.70;;;;;;5054030;28;19949;-61
2022/06/12 01:10:32;;;;;;;;;;;25.20;91.70;;;;;;5059951;28;20471;-64
2022/06/12 01:13:07;;;;;;;;;;;25.20;91.70;;;;;;5054794;28;19937;-63
2022/06/12 01:15:36;;;;;;;;;;;25.20;91.70;;;;;;5059497;28;19933;-61
2022/06/12 01:18:06;;;;;;;;;;;25.20;91.70;;;;;;5058918;28;20259;-65
2022/06/12 01:20:37;;;;;;;;;;;25.20;91.70;;;;;;5059113;28;19929;-64
2022/06/12 01:23:07;;;;;;;;;;;25.20;91.60;;;;;;5049654;28;19957;-64
2022/06/12 01:25:37;;;;;;;;;;;25.20;91.70;;;;;;5060009;28;19933;-63
2022/06/12 01:28:23;;;;;;;;;;;25.20;91.70;;;;;;5051016;28;19932;-64
2022/06/12 01:31:09;;;;;;;;;;;25.20;91.60;;;;;;5069089;28;20371;-62
2022/06/12 01:33:42;;;;;;;;;;;25.20;91.50;;;;;;5067891;28;19925;-63
2022/06/12 01:36:14;;;;;;;;;;;25.20;91.50;;;;;;5050058;28;19948;-64
2022/06/12 01:38:44;;;;;;;;;;;25.20;91.50;;;;;;5058031;28;19929;-62
2022/06/12 01:41:11;;;;;;;;;;;25.20;91.50;;;;;;5054187;28;19932;-62
2022/06/12 01:43:57;;;;;;;;;;;25.20;91.50;;;;;;5049523;28;19935;-64
2022/06/12 01:46:29;;;;;;;;;;;25.20;91.50;;;;;;5052877;28;20216;-63
2022/06/12 01:49:13;;;;;;;;;;;25.20;91.50;;;;;;5067430;28;19932;-63
2022/06/12 01:51:55;;;;;;;;;;;25.20;91.50;;;;;;5061017;28;19925;-63
2022/06/12 01:54:29;;;;;;;;;;;25.20;91.50;;;;;;5069292;28;19937;-64
2022/06/12 01:57:13;;;;;;;;;;;25.20;91.50;;;;;;5059566;28;19931;-64
2022/06/12 01:59:40;;;;;;;;;;;25.20;91.40;;;;;;5070467;28;19928;-64
2022/06/12 02:02:17;;;;;;;;;;;25.20;91.50;;;;;;5055507;28;20459;-64
2022/06/12 02:04:50;;;;;;;;;;;25.20;91.50;;;;;;5062568;28;20304;-65
2022/06/12 02:07:20;;;;;;;;;;;25.20;91.40;;;;;;5061490;28;19928;-65
2022/06/12 02:09:52;;;;;;;;;;;25.10;91.50;;;;;;5065257;28;19936;-64
2022/06/12 02:15:19;;;;;;;;;;;25.10;91.60;;;;;;5052680;28;19928;-63
2022/06/12 02:17:53;;;;;;;;;;;25.10;91.50;;;;;;5051955;28;19939;-63
2022/06/12 02:20:23;;;;;;;;;;;25.10;91.50;;;;;;5057033;28;20383;-64
2022/06/12 02:22:50;;;;;;;;;;;25.20;91.50;;;;;;5059360;28;19936;-64
2022/06/12 02:25:21;;;;;;;;;;;25.20;91.70;;;;;;5059499;28;20324;-64
2022/06/12 02:28:01;;;;;;;;;;;25.10;91.70;;;;;;5048833;28;19929;-62
2022/06/12 02:30:31;;;;;;;;;;;25.10;91.70;;;;;;5062236;28;19928;-62
2022/06/12 02:33:03;;;;;;;;;;;25.10;91.60;;;;;;5062750;28;19928;-64
2022/06/12 02:35:32;;;;;;;;;;;25.10;91.70;;;;;;5049107;28;19932;-62
2022/06/12 02:38:03;;;;;;;;;;;25.10;91.70;;;;;;5050745;28;19948;-65
2022/06/12 02:40:33;;;;;;;;;;;25.10;91.70;;;;;;5059107;28;19924;-62
2022/06/12 02:43:04;;;;;;;;;;;25.10;91.70;;;;;;5050398;28;19928;-64
2022/06/12 02:45:33;;;;;;;;;;;25.10;91.70;;;;;;5054849;28;20060;-61
2022/06/12 02:48:01;;;;;;;;;;;25.10;91.70;;;;;;5050248;28;19925;-64
2022/06/12 02:50:33;;;;;;;;;;;25.10;91.60;;;;;;5055687;28;19929;-61
2022/06/12 02:53:03;;;;;;;;;;;25.00;91.60;;;;;;5046843;28;19925;-63
2022/06/12 02:55:54;;;;;;;;;;;25.00;91.60;;;;;;5050160;28;19929;-63
2022/06/12 02:58:25;;;;;;;;;;;25.10;91.60;;;;;;5048878;28;20415;-63
2022/06/12 03:00:56;;;;;;;;;;;25.10;91.60;;;;;;5061820;28;19947;-62
2022/06/12 03:03:29;;;;;;;;;;;25.00;91.70;;;;;;5062464;28;19939;-64
2022/06/12 03:05:57;;;;;;;;;;;25.00;91.60;;;;;;5062032;28;19932;-64
2022/06/12 03:08:34;;;;;;;;;;;25.00;91.70;;;;;;5071843;28;19924;-63
2022/06/12 03:11:04;;;;;;;;;;;25.00;91.90;;;;;;5060694;28;19940;-62
2022/06/12 03:13:32;;;;;;;;;;;25.00;92.00;;;;;;5064242;28;20304;-63
2022/06/12 03:16:19;;;;;;;;;;;25.00;91.90;;;;;;5064040;28;19929;-64
2022/06/12 03:18:49;;;;;;;;;;;25.00;92.20;;;;;;5048179;28;20481;-64
2022/06/12 03:21:35;;;;;;;;;;;25.10;92.10;;;;;;5050637;28;19932;-63
2022/06/12 03:24:12;;;;;;;;;;;25.00;91.90;;;;;;5050365;28;19928;-64
2022/06/12 03:26:58;;;;;;;;;;;25.00;92.00;;;;;;5066111;28;19924;-65
2022/06/12 03:29:31;;;;;;;;;;;25.00;91.90;;;;;;5062988;28;20369;-63
2022/06/12 03:32:12;;;;;;;;;;;25.00;91.90;;;;;;5058667;28;19928;-64
2022/06/12 03:34:58;;;;;;;;;;;25.00;91.90;;;;;;5064113;28;19925;-65
2022/06/12 03:37:37;;;;;;;;;;;25.00;91.90;;;;;;5048621;28;19929;-64
2022/06/12 03:40:10;;;;;;;;;;;25.00;91.90;;;;;;5055426;28;19928;-61
2022/06/12 03:42:47;;;;;;;;;;;25.00;91.90;;;;;;5048707;28;19936;-65
2022/06/12 03:45:22;;;;;;;;;;;25.00;91.90;;;;;;5055869;28;19925;-64
2022/06/12 03:48:00;;;;;;;;;;;25.00;91.90;;;;;;5068076;28;20042;-63
2022/06/12 03:50:33;;;;;;;;;;;25.00;91.90;;;;;;5066548;28;19936;-60
2022/06/12 03:53:00;;;;;;;;;;;25.00;91.80;;;;;;5054881;28;20280;-63
2022/06/12 03:58:20;;;;;;;;;;;25.00;91.90;;;;;;5049287;28;20292;-62
2022/06/12 04:00:49;;;;;;;;;;;24.90;91.80;;;;;;5055210;28;19965;-64
2022/06/12 04:03:27;;;;;;;;;;;25.00;92.10;;;;;;5049851;28;19993;-61
2022/06/12 04:05:57;;;;;;;;;;;25.00;91.90;;;;;;5059852;28;19925;-64
2022/06/12 04:08:30;;;;;;;;;;;25.00;91.90;;;;;;5051555;28;19936;-63
2022/06/12 04:10:57;;;;;;;;;;;25.00;91.90;;;;;;5058867;28;19928;-61
2022/06/12 04:13:25;;;;;;;;;;;25.00;91.90;;;;;;5050957;28;20295;-63
2022/06/12 04:15:54;;;;;;;;;;;25.00;92.00;;;;;;5058744;28;19940;-63
2022/06/12 04:18:23;;;;;;;;;;;25.00;91.90;;;;;;5049538;28;20311;-64
2022/06/12 04:20:58;;;;;;;;;;;25.00;91.90;;;;;;5048059;28;19928;-63
2022/06/12 04:23:45;;;;;;;;;;;25.00;91.90;;;;;;5064568;28;20292;-62
2022/06/12 04:26:21;;;;;;;;;;;24.90;91.90;;;;;;5054561;28;20288;-63
2022/06/12 04:28:55;;;;;;;;;;;25.00;91.80;;;;;;5063616;28;20399;-63
2022/06/12 04:31:22;;;;;;;;;;;24.90;91.80;;;;;;5055196;28;20356;-62
2022/06/12 04:33:56;;;;;;;;;;;24.90;91.80;;;;;;5058577;28;20027;-62
2022/06/12 04:36:23;;;;;;;;;;;24.90;91.90;;;;;;5065863;28;19928;-61
2022/06/12 04:38:53;;;;;;;;;;;24.90;92.00;;;;;;5074185;28;19939;-63
2022/06/12 04:41:25;;;;;;;;;;;25.00;91.90;;;;;;5053354;28;19936;-63
2022/06/12 04:43:53;;;;;;;;;;;25.00;91.90;;;;;;5058376;28;19929;-65
2022/06/12 04:46:20;;;;;;;;;;;25.00;92.00;;;;;;5065237;28;19936;-62
2022/06/12 04:48:49;;;;;;;;;;;25.00;92.10;;;;;;5063620;28;19933;-63
2022/06/12 04:51:17;;;;;;;;;;;25.00;92.20;;;;;;5063504;28;19928;-62
2022/06/12 04:53:46;;;;;;;;;;;25.00;92.20;;;;;;5067076;28;19932;-61
2022/06/12 04:56:14;;;;;;;;;;;25.00;92.30;;;;;;5070402;28;19928;-64
2022/06/12 04:58:42;;;;;;;;;;;25.00;92.30;;;;;;5071928;28;19936;-67
2022/06/12 05:01:10;;;;;;;;;;;25.10;92.50;;;;;;5070198;28;19931;-64
2022/06/12 05:03:37;;;;;;;;;;;25.10;92.50;;;;;;5064308;28;20054;-66
2022/06/12 05:06:05;;;;;;;;;;;25.10;92.50;;;;;;5052862;28;20419;-62
2022/06/12 05:08:33;;;;;;;;;;;25.10;92.50;;;;;;5069854;28;19929;-65
2022/06/12 05:11:00;;;;;;;;;;;25.10;92.50;;;;;;5064071;28;19931;-67
2022/06/12 05:13:27;;;;;;;;;;;25.10;92.50;;;;;;5059516;28;19932;-66
2022/06/12 05:15:55;;;;;;;;;;;25.10;92.40;;;;;;5064795;28;19931;-63
2022/06/12 05:18:23;;;;;;;;;;;25.10;92.30;;;;;;5056429;28;19936;-63
2022/06/12 05:20:50;;;;;;;;;;;25.10;92.30;;;;;;5060110;28;19944;-67
2022/06/12 05:23:19;;;;;;;;;;;25.10;92.10;;;;;;5050664;28;20475;-66
2022/06/12 05:25:46;;;;;;;;;;;25.10;91.80;;;;;;5064115;28;19935;-66
2022/06/12 05:28:14;;;;;;;;;;;25.00;91.70;;;;;;5052933;28;19929;-66
2022/06/12 05:30:42;;;;;;;;;;;25.00;91.80;;;;;;5060653;28;19925;-65
2022/06/12 05:33:10;;;;;;;;;;;25.00;91.70;;;;;;5064814;28;19929;-66
2022/06/12 05:35:37;;;;;;;;;;;25.00;91.60;;;;;;5067239;28;19935;-66
2022/06/12 05:38:06;;;;;;;;;;;25.00;91.40;;;;;;5068848;28;20438;-64
2022/06/12 05:40:36;;;;;;;;;;;25.00;90.90;;;;;;5064993;28;20300;-64
2022/06/12 05:43:03;;;;;;;;;;;24.90;91.00;;;;;;5060204;28;20218;-64
2022/06/12 05:45:31;;;;;;;;;;;24.90;91.30;;;;;;5068655;28;19940;-65
2022/06/12 05:48:03;;;;;;;;;;;24.90;91.10;;;;;;5076990;28;19939;-64
2022/06/12 05:50:32;;;;;;;;;;;24.90;90.90;;;;;;5076345;28;19925;-62
2022/06/12 05:52:59;;;;;;;;;;;24.90;90.90;;;;;;5068142;28;19929;-65
2022/06/12 05:55:27;;;;;;;;;;;24.90;90.80;;;;;;5072383;28;19925;-63
2022/06/12 05:57:54;;;;;;;;;;;24.90;90.80;;;;;;5077716;28;19924;-63
2022/06/12 06:00:24;;;;;;;;;;;25.00;90.90;;;;;;5076875;28;19932;-64
2022/06/12 06:02:51;;;;;;;;;;;25.00;90.80;;;;;;5075696;28;19936;-64
2022/06/12 06:05:19;;;;;;;;;;;24.90;90.80;;;;;;5060283;28;19932;-62
2022/06/12 06:07:46;;;;;;;;;;;25.00;90.90;;;;;;5072343;28;19928;-61
2022/06/12 06:10:16;;;;;;;;;;;25.00;90.90;;;;;;5079200;28;19929;-63
2022/06/12 06:12:43;;;;;;;;;;;25.00;90.80;;;;;;5083139;28;19928;-63
2022/06/12 06:15:10;;;;;;;;;;;25.00;90.80;;;;;;5071471;28;19929;-64
2022/06/12 06:17:37;;;;;;;;;;;24.90;90.70;;;;;;5076754;28;19928;-65
2022/06/12 06:20:06;;;;;;;;;;;24.90;90.60;;;;;;5077520;28;20489;-63
2022/06/12 06:22:33;;;;;;;;;;;24.90;90.60;;;;;;5070755;28;19935;-61
2022/06/12 06:25:00;;;;;;;;;;;24.90;90.60;;;;;;5073224;28;19936;-63
2022/06/12 06:27:27;;;;;;;;;;;24.90;90.60;;;;;;5077087;28;19940;-63
2022/06/12 06:29:54;;;;;;;;;;;24.90;90.50;;;;;;5064323;28;20407;-62
2022/06/12 06:32:21;;;;;;;;;;;24.90;90.50;;;;;;5074272;28;20295;-64
2022/06/12 06:34:49;;;;;;;;;;;24.90;90.70;;;;;;5077785;28;19928;-67
2022/06/12 06:37:16;;;;;;;;;;;24.90;91.00;;;;;;5059728;28;20011;-62
2022/06/12 06:39:43;;;;;;;;;;;24.90;91.40;;;;;;5064183;28;19932;-66
2022/06/12 06:42:10;;;;;;;;;;;24.90;91.70;;;;;;5059285;28;19928;-62
2022/06/12 06:47:29;;;;;;;;;;;25.00;92.40;;;;;;5056571;28;19933;-62
2022/06/12 06:49:57;;;;;;;;;;;25.00;92.50;;;;;;5060542;28;20407;-65
2022/06/12 06:52:24;;;;;;;;;;;25.00;92.50;;;;;;5058856;28;19925;-60
2022/06/12 06:54:51;;;;;;;;;;;25.00;92.90;;;;;;5060759;28;19939;-64
2022/06/12 06:57:18;;;;;;;;;;;25.00;93.20;;;;;;5063723;28;19929;-62
2022/06/12 06:59:45;;;;;;;;;;;25.10;93.20;;;;;;5056429;28;19925;-60
2022/06/12 07:02:13;;;;;;;;;;;25.10;93.30;;;;;;5059438;28;19928;-65
2022/06/12 07:04:40;;;;;;;;;;;25.10;93.50;;;;;;5061005;28;19939;-61
2022/06/12 07:07:08;;;;;;;;;;;25.10;93.60;;;;;;5059992;28;20247;-64
2022/06/12 07:09:36;;;;;;;;;;;25.10;93.70;;;;;;5036916;28;19936;-60
2022/06/12 07:12:04;;;;;;;;;;;25.10;93.30;;;;;;5026711;28;19933;-61
2022/06/12 07:14:31;;;;;;;;;;;25.10;93.40;;;;;;5040737;28;19924;-65
2022/06/12 07:16:58;;;;;;;;;;;25.10;93.50;;;;;;5059139;28;20466;-65
2022/06/12 07:19:26;;;;;;;;;;;25.10;93.70;;;;;;5060183;28;19928;-62
2022/06/12 07:21:54;;;;;;;;;;;25.10;93.90;;;;;;5059194;28;19932;-65
2022/06/12 07:24:26;;;;;;;;;;;25.20;94.10;;;;;;5057425;28;19929;-65
2022/06/12 07:26:54;;;;;;;;;;;25.20;94.30;;;;;;5056272;28;19935;-67
2022/06/12 07:29:21;;;;;;;;;;;25.20;94.40;;;;;;5059016;28;19951;-62
2022/06/12 07:31:48;;;;;;;;;;;25.20;94.50;;;;;;5062019;28;19939;-62
2022/06/12 07:34:16;;;;;;;;;;;25.20;94.60;;;;;;5063428;28;20307;-65
2022/06/12 07:36:45;;;;;;;;;;;25.20;94.70;;;;;;5058591;28;19928;-60
2022/06/12 07:39:14;;;;;;;;;;;25.30;94.70;;;;;;5059413;28;19936;-61
2022/06/12 07:41:44;;;;;;;;;;;25.30;94.70;;;;;;5064002;28;20402;-62
2022/06/12 07:44:11;;;;;;;;;;;25.30;94.70;;;;;;5057305;28;19936;-61
2022/06/12 07:46:39;;;;;;;;;;;25.30;94.70;;;;;;5063020;28;20391;-61
2022/06/12 07:49:06;;;;;;;;;;;25.30;94.80;;;;;;5065691;28;19924;-60
2022/06/12 07:51:33;;;;;;;;;;;25.30;94.70;;;;;;5059242;28;20271;-59
2022/06/12 07:54:01;;;;;;;;;;;25.30;94.70;;;;;;5055313;28;19928;-58
2022/06/12 07:56:28;;;;;;;;;;;25.30;94.70;;;;;;5060084;28;19981;-61
2022/06/12 07:58:55;;;;;;;;;;;25.30;94.70;;;;;;5051146;28;19940;-62
2022/06/12 08:01:24;;;;;;;;;;;25.30;94.70;;;;;;5055947;28;20005;-63
2022/06/12 08:03:52;;;;;;;;;;;25.30;94.70;;;;;;5062587;28;19932;-62
2022/06/12 08:06:19;;;;;;;;;;;25.30;94.80;;;;;;5064830;28;19929;-60
2022/06/12 08:08:47;;;;;;;;;;;25.30;94.80;;;;;;5058230;28;19928;-60
2022/06/12 08:11:14;;;;;;;;;;;25.30;94.70;;;;;;5059959;28;19947;-61
2022/06/12 08:13:41;;;;;;;;;;;25.40;94.80;;;;;;5067206;28;20391;-61
2022/06/12 08:16:08;;;;;;;;;;;25.40;94.80;;;;;;5070399;28;19943;-61
2022/06/12 08:18:36;;;;;;;;;;;25.40;94.60;;;;;;5074659;28;19936;-61
2022/06/12 08:21:05;;;;;;;;;;;25.40;94.60;;;;;;5072094;28;20007;-63
2022/06/12 08:23:37;;;;;;;;;;;25.40;94.60;;;;;;5074616;28;19928;-61
2022/06/12 08:26:12;;;;;;;;;;;25.40;94.60;;;;;;5067915;28;19928;-60
2022/06/12 08:28:44;;;;;;;;;;;25.40;94.50;;;;;;5064424;28;19932;-61
2022/06/12 08:31:13;;;;;;;;;;;25.40;94.50;;;;;;5062242;28;20404;-57
2022/06/12 08:33:42;;;;;;;;;;;25.40;94.60;;;;;;5066300;28;19946;-62
2022/06/12 08:36:10;;;;;;;;;;;25.40;94.60;;;;;;5068485;28;19925;-61
2022/06/12 08:38:40;;;;;;;;;;;25.50;94.60;;;;;;5063500;28;19928;-60
2022/06/12 08:41:14;;;;;;;;;;;25.40;94.50;;;;;;5061178;28;19928;-59
2022/06/12 08:43:41;;;;;;;;;;;25.40;94.60;;;;;;5060922;28;20407;-62
2022/06/12 08:46:15;;;;;;;;;;;25.40;94.60;;;;;;5067539;28;20393;-63
2022/06/12 08:48:55;;;;;;;;;;;25.40;94.50;;;;;;5072386;28;20375;-67
2022/06/12 08:51:31;;;;;;;;;;;25.50;94.80;;;;;;5068240;28;19939;-64
2022/06/12 08:54:01;;;;;;;;;;;25.50;94.60;;;;;;5066316;28;19940;-59
2022/06/12 08:56:35;;;;;;;;;;;25.50;94.50;;;;;;5067678;28;20411;-59
2022/06/12 08:59:17;;;;;;;;;;;25.50;94.60;;;;;;5062472;28;19932;-61
2022/06/12 09:01:45;;;;;;;;;;;25.50;94.30;;;;;;5061317;28;20284;-60
2022/06/12 09:04:15;;;;;;;;;;;25.40;94.00;;;;;;5067027;28;19931;-60
2022/06/12 09:07:08;;;;;;;;;;;25.40;92.30;;;;;;5066138;28;19944;-58
2022/06/12 09:09:40;;;;;;;;;;;25.30;91.90;;;;;;5065338;28;20252;-63
2022/06/12 09:12:09;;;;;;;;;;;25.30;92.00;;;;;;5060934;28;19928;-60
2022/06/12 09:14:55;;;;;;;;;;;25.20;90.80;;;;;;5065498;28;19925;-60
2022/06/12 09:17:29;;;;;;;;;;;25.20;91.00;;;;;;5066261;28;19935;-63
2022/06/12 09:19:56;;;;;;;;;;;25.20;90.40;;;;;;5062560;28;19936;-59
2022/06/12 09:22:43;;;;;;;;;;;25.20;89.60;;;;;;5062403;28;19952;-63
2022/06/12 09:25:30;;;;;;;;;;;25.20;90.10;;;;;;5063427;28;19929;-60
2022/06/12 09:28:06;;;;;;;;;;;25.20;90.10;;;;;;5065809;28;19928;-60
2022/06/12 09:30:43;;;;;;;;;;;25.20;90.10;;;;;;5060312;28;19936;-60
2022/06/12 09:33:14;;;;;;;;;;;25.20;90.60;;;;;;5067742;28;19928;-62
2022/06/12 09:35:49;;;;;;;;;;;25.20;90.90;;;;;;5068953;28;19935;-58
2022/06/12 09:38:29;;;;;;;;;;;25.30;91.30;;;;;;5061298;28;20003;-60
2022/06/12 09:40:59;;;;;;;;;;;25.40;91.90;;;;;;5056383;28;19929;-61
2022/06/12 09:43:39;;;;;;;;;;;25.60;92.20;;;;;;5059635;28;20287;-66
2022/06/12 09:46:06;;;;;;;;;;;25.70;92.50;;;;;;5066293;28;20391;-63
2022/06/12 09:48:46;;;;;;;;;;;25.80;92.50;;;;;;5058167;28;19924;-66
2022/06/12 09:51:13;;;;;;;;;;;25.80;92.70;;;;;;5059033;28;19928;-63
2022/06/12 09:53:46;;;;;;;;;;;25.80;92.70;;;;;;5056835;28;20262;-65
2022/06/12 09:56:20;;;;;;;;;;;25.80;92.70;;;;;;5053109;28;20352;-66
2022/06/12 09:58:50;;;;;;;;;;;25.80;92.70;;;;;;5057781;28;19948;-64
2022/06/12 10:01:21;;;;;;;;;;;25.80;92.60;;;;;;5064702;28;19928;-65
2022/06/12 10:03:52;;;;;;;;;;;25.80;92.80;;;;;;5062619;28;19925;-64
2022/06/12 10:06:26;;;;;;;;;;;25.80;92.90;;;;;;5064736;28;19940;-61
2022/06/12 10:08:53;;;;;;;;;;;25.80;93.00;;;;;;5062184;28;19932;-61
2022/06/12 10:11:20;;;;;;;;;;;25.80;92.80;;;;;;5061614;28;20315;-60
2022/06/12 10:13:53;;;;;;;;;;;25.70;93.40;;;;;;5062798;28;20303;-59
2022/06/12 10:16:27;;;;;;;;;;;25.70;93.90;;;;;;5057046;28;19932;-63
2022/06/12 10:19:17;;;;;;;;;;;25.80;93.70;;;;;;5055685;28;20007;-60
2022/06/12 10:21:46;;;;;;;;;;;25.80;93.90;;;;;;5062274;28;19929;-57
2022/06/12 10:24:13;;;;;;;;;;;25.80;94.30;;;;;;5060883;28;20260;-61
2022/06/12 10:26:52;;;;;;;;;;;25.80;94.10;;;;;;5058029;28;19928;-60
2022/06/12 10:29:24;;;;;;;;;;;25.80;94.40;;;;;;5056667;28;19928;-56
2022/06/12 10:31:59;;;;;;;;;;;25.80;94.10;;;;;;5057703;28;20403;-57
2022/06/12 10:34:28;;;;;;;;;;;25.70;93.80;;;;;;5054861;28;19929;-60
2022/06/12 10:37:16;;;;;;;;;;;25.70;93.70;;;;;;5058735;28;19929;-58
2022/06/12 10:39:44;;;;;;;;;;;25.70;93.40;;;;;;5050709;28;19929;-58
2022/06/12 10:42:34;;;;;;;;;;;25.70;93.10;;;;;;5062610;28;19928;-60
2022/06/12 10:45:01;;;;;;;;;;;25.70;92.70;;;;;;5067105;28;20502;-57
2022/06/12 10:47:29;;;;;;;;;;;25.70;94.30;;;;;;5063422;28;19990;-55
2022/06/12 10:50:05;;;;;;;;;;;25.70;94.50;;;;;;5057225;28;19924;-62
2022/06/12 10:52:33;;;;;;;;;;;25.80;96.40;;;;;;5058164;28;19939;-60
2022/06/12 10:55:01;;;;;;;;;;;25.80;97.70;;;;;;5065260;28;20443;-58
2022/06/12 10:57:37;;;;;;;;;;;25.80;96.90;;;;;;5060838;28;20039;-58
2022/06/12 11:00:09;;;;;;;;;;;25.80;96.30;;;;;;5057976;28;19935;-58
2022/06/12 11:02:54;;;;;;;;;;;25.70;96.00;;;;;;5055743;28;19928;-58
2022/06/12 11:05:24;;;;;;;;;;;25.70;95.60;;;;;;5060436;28;19990;-60
2022/06/12 11:08:06;;;;;;;;;;;25.70;95.10;;;;;;5060466;28;19924;-58
2022/06/12 11:10:43;;;;;;;;;;;25.70;94.90;;;;;;5061403;28;19935;-60
2022/06/12 11:13:31;;;;;;;;;;;25.70;94.80;;;;;;5057091;28;20391;-63
2022/06/12 11:15:58;;;;;;;;;;;25.70;95.80;;;;;;5040388;28;19936;-64
2022/06/12 11:18:31;;;;;;;;;;;25.70;95.50;;;;;;5059788;28;20425;-62
2022/06/12 11:21:01;;;;;;;;;;;25.80;95.70;;;;;;5053204;28;19929;-62
2022/06/12 11:23:39;;;;;;;;;;;25.80;95.80;;;;;;5053710;28;20383;-61
2022/06/12 11:26:18;;;;;;;;;;;25.80;95.90;;;;;;5055886;28;19925;-61
2022/06/12 11:29:04;;;;;;;;;;;25.70;95.80;;;;;;5055020;28;20019;-60
2022/06/12 11:31:50;;;;;;;;;;;25.70;95.80;;;;;;5060749;28;19933;-59
2022/06/12 11:34:37;;;;;;;;;;;25.70;95.90;;;;;;5054472;28;19928;-62
2022/06/12 11:37:07;;;;;;;;;;;25.70;95.80;;;;;;5054200;28;19928;-62
2022/06/12 11:39:57;;;;;;;;;;;25.70;95.70;;;;;;5053345;28;19925;-63
2022/06/12 11:42:27;;;;;;;;;;;25.70;95.40;;;;;;5057324;28;19940;-58
2022/06/12 11:45:03;;;;;;;;;;;25.70;94.70;;;;;;5056068;28;19982;-61
2022/06/12 11:47:50;;;;;;;;;;;25.70;94.40;;;;;;5058585;28;19924;-60
2022/06/12 11:50:35;;;;;;;;;;;25.70;94.00;;;;;;5063182;28;19929;-62
2022/06/12 11:53:08;;;;;;;;;;;25.70;93.40;;;;;;5059814;28;19935;-61
2022/06/12 11:55:43;;;;;;;;;;;25.60;93.10;;;;;;5063903;28;19936;-61
2022/06/12 11:58:19;;;;;;;;;;;25.70;93.10;;;;;;5063524;28;20906;-59
2022/06/12 12:00:50;;;;;;;;;;;25.60;92.60;;;;;;5061492;28;19929;-61
2022/06/12 12:03:30;;;;;;;;;;;25.60;92.00;;;;;;5063947;28;19935;-59
2022/06/12 12:06:12;;;;;;;;;;;25.60;91.70;;;;;;5068281;28;19928;-59
2022/06/12 12:08:57;;;;;;;;;;;25.70;91.40;;;;;;5058436;28;19943;-62
2022/06/12 12:11:30;;;;;;;;;;;25.70;91.10;;;;;;5063352;28;20299;-61
2022/06/12 12:13:59;;;;;;;;;;;25.70;90.60;;;;;;5061506;28;20360;-60
2022/06/12 12:16:55;;;;;;;;;;;25.70;90.30;;;;;;5061027;28;20426;-61
2022/06/12 12:19:41;;;;;;;;;;;25.70;90.10;;;;;;5045358;28;20291;-63
2022/06/12 12:22:12;;;;;;;;;;;25.70;89.90;;;;;;5067591;28;19931;-61
2022/06/12 12:24:42;;;;;;;;;;;25.70;89.70;;;;;;5052275;28;20356;-61
2022/06/12 12:27:15;;;;;;;;;;;25.70;89.50;;;;;;5066328;28;20392;-61
2022/06/12 12:29:42;;;;;;;;;;;25.70;89.20;;;;;;5065560;28;20252;-64
2022/06/12 12:32:10;;;;;;;;;;;25.70;89.50;;;;;;5067805;28;20383;-60
2022/06/12 12:34:38;;;;;;;;;;;25.70;89.00;;;;;;5061350;28;19929;-62
2022/06/12 12:43:16;;;;;;;;;;;25.80;90.60;;;;;;5067508;28;19951;-59
2022/06/12 12:45:44;;;;;;;;;;;25.80;90.70;;;;;;5071947;28;19940;-58
2022/06/12 12:48:16;;;;;;;;;;;25.90;91.00;;;;;;5068264;28;19948;-58
2022/06/12 12:50:52;;;;;;;;;;;25.90;91.00;;;;;;5066760;28;19932;-60
2022/06/12 12:53:23;;;;;;;;;;;25.80;91.00;;;;;;5060406;28;20288;-59
2022/06/12 12:56:16;;;;;;;;;;;25.80;91.30;;;;;;5070741;28;19936;-61
2022/06/12 12:58:55;;;;;;;;;;;25.90;91.60;;;;;;5059012;28;19932;-60
2022/06/12 13:01:26;;;;;;;;;;;25.90;91.70;;;;;;5072553;28;19935;-61
2022/06/12 13:03:58;;;;;;;;;;;25.90;91.70;;;;;;5077243;28;19933;-63
2022/06/12 13:06:32;;;;;;;;;;;25.90;92.00;;;;;;5067196;28;19932;-63
2022/06/12 13:08:59;;;;;;;;;;;26.00;92.10;;;;;;5059075;28;19933;-63
2022/06/12 13:11:47;;;;;;;;;;;26.00;92.30;;;;;;5065766;28;19932;-65
2022/06/12 13:14:22;;;;;;;;;;;26.00;92.50;;;;;;5059646;28;19933;-63
2022/06/12 13:16:53;;;;;;;;;;;26.10;92.70;;;;;;5065659;28;19928;-61
2022/06/12 13:19:34;;;;;;;;;;;26.10;92.90;;;;;;5063746;28;19928;-64
2022/06/12 13:22:16;;;;;;;;;;;26.10;92.90;;;;;;5059067;28;19925;-64
2022/06/12 13:24:49;;;;;;;;;;;26.20;93.20;;;;;;5066412;28;19933;-65
2022/06/12 13:27:20;;;;;;;;;;;26.20;93.70;;;;;;5065253;28;20584;-65
2022/06/12 13:29:48;;;;;;;;;;;26.30;94.10;;;;;;5062387;28;19928;-63
2022/06/12 13:32:28;;;;;;;;;;;26.40;94.40;;;;;;5058252;28;19943;-62
2022/06/12 13:35:29;;;;;;;;;;;26.40;94.40;;;;;;5062208;28;19951;-61
2022/06/12 13:38:04;;;;;;;;;;;26.40;94.70;;;;;;5063632;28;20314;-63
2022/06/12 13:40:41;;;;;;;;;;;26.40;94.50;;;;;;5059976;28;20241;-63
2022/06/12 13:43:12;;;;;;;;;;;26.40;94.20;;;;;;5061650;28;19928;-62
2022/06/12 13:45:55;;;;;;;;;;;26.40;94.50;;;;;;5057865;28;20414;-63
2022/06/12 13:48:35;;;;;;;;;;;26.40;94.60;;;;;;5065400;28;19932;-61
2022/06/12 13:51:13;;;;;;;;;;;26.40;94.60;;;;;;5060484;28;20403;-61
2022/06/12 13:53:43;;;;;;;;;;;26.50;94.20;;;;;;5057094;28;19958;-60
2022/06/12 13:56:12;;;;;;;;;;;26.60;94.10;;;;;;5063759;28;20361;-61
2022/06/12 13:58:42;;;;;;;;;;;26.60;93.90;;;;;;5061459;28;19929;-59
2022/06/12 14:01:17;;;;;;;;;;;26.60;93.80;;;;;;5060735;28;19939;-60
2022/06/12 14:03:46;;;;;;;;;;;26.60;93.70;;;;;;5055312;28;20398;-61
2022/06/12 14:06:14;;;;;;;;;;;26.60;93.60;;;;;;5062702;28;20510;-62
2022/06/12 14:08:42;;;;;;;;;;;26.60;93.50;;;;;;5063150;28;19928;-60
2022/06/12 14:11:22;;;;;;;;;;;26.60;93.40;;;;;;5055970;28;19925;-58
2022/06/12 14:13:50;;;;;;;;;;;26.70;93.30;;;;;;5062633;28;19936;-60
2022/06/12 14:16:21;;;;;;;;;;;26.70;93.10;;;;;;5052666;28;19929;-59
2022/06/12 14:18:57;;;;;;;;;;;26.70;93.00;;;;;;5049524;28;19928;-64
2022/06/12 14:21:35;;;;;;;;;;;26.70;92.80;;;;;;5058752;28;20311;-62
2022/06/12 14:24:22;;;;;;;;;;;26.80;92.80;;;;;;5062752;28;19940;-61
2022/06/12 14:26:50;;;;;;;;;;;26.80;92.80;;;;;;5061065;28;20116;-61
2022/06/12 14:29:27;;;;;;;;;;;26.80;92.60;;;;;;5059263;28;20345;-59
2022/06/12 14:32:13;;;;;;;;;;;26.90;92.50;;;;;;5062216;28;19935;-61
2022/06/12 14:34:44;;;;;;;;;;;26.90;92.30;;;;;;5061873;28;19939;-59
2022/06/12 14:37:24;;;;;;;;;;;26.90;92.10;;;;;;5064074;28;19929;-61
2022/06/12 14:39:51;;;;;;;;;;;26.90;91.80;;;;;;5063525;28;19936;-57
2022/06/12 14:42:19;;;;;;;;;;;26.90;91.40;;;;;;5065952;28;19929;-60
2022/06/12 14:44:47;;;;;;;;;;;27.00;91.00;;;;;;5063233;28;19944;-58
2022/06/12 14:47:22;;;;;;;;;;;27.00;90.60;;;;;;5060233;28;19928;-57
2022/06/12 14:49:51;;;;;;;;;;;27.00;90.30;;;;;;5064701;28;19935;-58
2022/06/12 14:52:25;;;;;;;;;;;27.10;90.10;;;;;;5060296;28;20392;-59
2022/06/12 14:54:53;;;;;;;;;;;27.10;89.60;;;;;;5058861;28;20308;-59
2022/06/12 14:57:21;;;;;;;;;;;27.10;88.90;;;;;;5059103;28;19943;-61
2022/06/12 14:59:50;;;;;;;;;;;27.20;88.30;;;;;;5064037;28;20561;-60
2022/06/12 15:02:19;;;;;;;;;;;27.20;87.50;;;;;;5051343;28;20333;-59